Terminal Aerodrome Forecast
Issued by NWS

Home | Current Version | Previous Version | Text Only | Print | Product List | Glossary On
Versions: 1 2 3 4 5 6 7 8 9 10 11 12 13 14 15 16 17 18 19 20 21 22 23 24 25 26 27 28 29 30 31 32 33 34 35 36 37 38 39 40 41 42 43 44
000
FTUS41 KBOX 282339
TAFACK
TAF
KACK 282339Z 2900/2924 22010KT P6SM SKC
     FM290600 24013KT 5SM BR SCT250
     FM290900 24013KT 3SM BR BKN070
     FM291000 24012KT P6SM BKN060
     FM291200 24012KT 4SM BR SCT020
     FM291500 24011KT P6SM SCT025
     FM291800 23010KT P6SM SCT130=

USA.gov is the U.S. government's official web portal to all federal, state and local government web resources and services.